Time;durP1;ratioP1;P1;durP2;ratioP2;P2;SDS_P1;SDS_P2;PMS_P1;PMS_P2;Temp;Humidity;BMP_temperature;BMP_pressure;BME280_temperature;BME280_humidity;BME280_pressure;Samples;Min_cycle;Max_cycle;Signal;HPM_P1;HPM_P2
2022/06/19 00:00:37;;;;;;;12.07;5.90;;;23.40;85.80;;;;;;4969936;28;20455;-72
2022/06/19 00:03:07;;;;;;;6.20;4.70;;;23.40;86.00;;;;;;4972056;28;20962;-70
2022/06/19 00:05:32;;;;;;;10.10;5.10;;;23.50;85.60;;;;;;4973093;28;20416;-71
2022/06/19 00:07:58;;;;;;;10.57;5.53;;;23.40;85.20;;;;;;4972386;28;20505;-70
2022/06/19 00:10:24;;;;;;;14.17;5.40;;;23.40;85.10;;;;;;4971712;28;20704;-71
2022/06/19 00:12:49;;;;;;;6.77;5.03;;;23.30;85.30;;;;;;4972673;28;20207;-71
2022/06/19 00:15:16;;;;;;;6.73;5.27;;;23.30;85.20;;;;;;4972859;28;20657;-71
2022/06/19 00:17:43;;;;;;;12.97;6.30;;;23.30;85.00;;;;;;4969958;28;20212;-71
2022/06/19 00:20:09;;;;;;;11.43;5.33;;;23.30;85.50;;;;;;4969811;28;20471;-71
2022/06/19 00:22:35;;;;;;;13.80;5.80;;;23.10;85.90;;;;;;4971540;28;20849;-73
2022/06/19 00:25:01;;;;;;;9.70;4.90;;;23.00;86.60;;;;;;4972777;28;20431;-71
2022/06/19 00:27:27;;;;;;;8.83;4.80;;;23.00;86.70;;;;;;4972114;28;20564;-70
2022/06/19 00:29:53;;;;;;;8.07;5.13;;;22.90;86.20;;;;;;4971707;28;20475;-70
2022/06/19 00:32:20;;;;;;;9.73;5.30;;;23.00;86.20;;;;;;4971956;28;20196;-71
2022/06/19 00:34:46;;;;;;;11.80;4.90;;;23.00;86.00;;;;;;4985728;28;20455;-72
2022/06/19 00:37:11;;;;;;;11.80;5.50;;;22.90;86.20;;;;;;4971088;28;20522;-71
2022/06/19 00:39:40;;;;;;;6.73;4.60;;;22.90;85.80;;;;;;4969554;28;20459;-71
2022/06/19 00:42:08;;;;;;;12.27;5.43;;;22.90;85.70;;;;;;4967906;28;20200;-71
2022/06/19 00:44:34;;;;;;;12.33;6.30;;;22.90;85.90;;;;;;4963425;28;21230;-70
2022/06/19 00:47:15;;;;;;;8.33;5.33;;;22.80;86.10;;;;;;4970289;28;20534;-70
2022/06/19 00:49:59;;;;;;;6.97;4.03;;;22.70;85.20;;;;;;4961392;28;20586;-72
2022/06/19 00:52:38;;;;;;;7.40;4.60;;;22.60;86.50;;;;;;4972370;28;20442;-71
2022/06/19 00:55:16;;;;;;;12.33;4.80;;;22.60;86.50;;;;;;4967487;28;20440;-71
2022/06/19 00:57:46;;;;;;;10.30;5.30;;;22.60;86.50;;;;;;4964578;28;20475;-71
2022/06/19 01:00:24;;;;;;;7.87;4.73;;;22.60;86.80;;;;;;4969117;28;20455;-72
2022/06/19 01:02:53;;;;;;;15.20;5.30;;;22.60;86.90;;;;;;4977289;28;20545;-71
2022/06/19 01:05:19;;;;;;;9.47;5.27;;;22.50;87.60;;;;;;4971999;28;21004;-70
2022/06/19 01:07:46;;;;;;;12.30;5.07;;;22.40;88.60;;;;;;4971346;28;20447;-71
2022/06/19 01:10:13;;;;;;;6.60;4.40;;;22.30;89.30;;;;;;4972043;28;20461;-71
2022/06/19 01:12:41;;;;;;;10.90;5.00;;;22.30;88.20;;;;;;4967564;28;20435;-72
2022/06/19 01:15:09;;;;;;;7.80;4.23;;;22.30;88.20;;;;;;4971929;28;20446;-73
2022/06/19 01:17:35;;;;;;;11.73;5.17;;;22.30;88.10;;;;;;4968452;28;20471;-72
2022/06/19 01:20:08;;;;;;;8.17;4.40;;;22.30;88.50;;;;;;4969157;28;20455;-71
2022/06/19 01:22:40;;;;;;;8.47;5.37;;;22.30;88.00;;;;;;4971500;28;20268;-70
2022/06/19 01:25:15;;;;;;;8.87;4.93;;;22.20;88.60;;;;;;4958893;28;21528;-70
2022/06/19 01:30:32;;;;;;;10.13;5.20;;;22.10;89.00;;;;;;4969690;28;20474;-71
2022/06/19 01:33:00;;;;;;;13.50;5.30;;;22.10;89.10;;;;;;4970723;28;20471;-72
2022/06/19 01:35:30;;;;;;;10.90;4.60;;;22.10;89.50;;;;;;4970138;28;20530;-70
2022/06/19 01:37:56;;;;;;;8.07;4.93;;;22.10;89.60;;;;;;4969275;28;20486;-70
2022/06/19 01:40:27;;;;;;;9.20;5.28;;;22.00;89.90;;;;;;4969901;28;20199;-70
2022/06/19 01:42:53;;;;;;;10.43;5.47;;;22.00;90.30;;;;;;4981447;28;20643;-69
2022/06/19 01:45:20;;;;;;;8.33;4.87;;;22.00;89.90;;;;;;4972454;28;20435;-73
2022/06/19 01:47:46;;;;;;;5.23;4.73;;;22.00;90.00;;;;;;4969791;28;20465;-70
2022/06/19 01:50:32;;;;;;;10.30;4.80;;;21.90;90.00;;;;;;4971790;28;20458;-70
2022/06/19 01:53:07;;;;;;;8.27;4.43;;;21.90;90.00;;;;;;4971507;28;20462;-71
2022/06/19 01:55:34;;;;;;;5.93;4.30;;;21.90;90.00;;;;;;4966496;28;20474;-72
2022/06/19 01:58:00;;;;;;;13.50;4.33;;;21.90;90.10;;;;;;4964114;28;20491;-71
2022/06/19 02:00:29;;;;;;;8.98;4.45;;;21.80;90.10;;;;;;4968456;28;20521;-71
2022/06/19 02:03:06;;;;;;;10.17;4.30;;;21.70;90.30;;;;;;4971349;28;20184;-71
2022/06/19 02:05:32;;;;;;;9.45;4.40;;;21.70;90.30;;;;;;4963141;28;20463;-72
2022/06/19 02:07:58;;;;;;;8.43;4.60;;;21.60;90.60;;;;;;4977376;28;20239;-71
2022/06/19 02:10:24;;;;;;;8.20;4.50;;;21.60;90.70;;;;;;4961417;28;20467;-71
2022/06/19 02:12:50;;;;;;;7.95;4.43;;;21.60;90.70;;;;;;4966844;28;20858;-71
2022/06/19 02:15:16;;;;;;;4.97;4.47;;;21.60;90.90;;;;;;4959095;28;20227;-71
2022/06/19 02:17:48;;;;;;;10.20;4.30;;;21.50;90.90;;;;;;4958959;28;20241;-72
2022/06/19 02:20:14;;;;;;;9.27;4.40;;;21.50;90.50;;;;;;4973474;28;20228;-71
2022/06/19 02:22:39;;;;;;;10.07;4.43;;;21.50;90.60;;;;;;4972228;28;20181;-70
2022/06/19 02:25:06;;;;;;;10.10;4.90;;;21.50;90.80;;;;;;4985448;28;20188;-70
2022/06/19 02:27:33;;;;;;;11.03;5.47;;;21.50;90.90;;;;;;4965159;28;20669;-71
2022/06/19 02:30:01;;;;;;;6.05;4.43;;;21.50;91.00;;;;;;4975101;28;22409;-70
2022/06/19 02:32:33;;;;;;;7.68;4.30;;;21.40;91.20;;;;;;4976280;28;20180;-71
2022/06/19 02:34:59;;;;;;;7.60;4.25;;;21.40;91.30;;;;;;4972709;28;20215;-72
2022/06/19 02:37:26;;;;;;;8.50;4.70;;;21.30;91.30;;;;;;4972995;28;20843;-71
2022/06/19 02:39:53;;;;;;;8.23;4.70;;;21.30;91.40;;;;;;4971595;28;20354;-71
2022/06/19 02:42:22;;;;;;;11.75;4.25;;;21.30;91.40;;;;;;4972180;28;20195;-71
2022/06/19 02:44:54;;;;;;;6.28;4.82;;;21.40;91.50;;;;;;4974422;28;20172;-71
2022/06/19 02:47:22;;;;;;;7.40;4.60;;;21.40;91.30;;;;;;4964129;28;20658;-72
2022/06/19 02:49:48;;;;;;;7.97;4.80;;;21.30;91.20;;;;;;4974576;28;20326;-72
2022/06/19 02:52:13;;;;;;;6.70;4.60;;;21.40;91.30;;;;;;4974370;28;20665;-70
2022/06/19 02:54:40;;;;;;;7.97;4.70;;;21.40;91.10;;;;;;4973012;28;20548;-70
2022/06/19 02:57:06;;;;;;;12.45;4.43;;;21.30;91.20;;;;;;4968949;28;20580;-71
2022/06/19 02:59:33;;;;;;;6.47;4.35;;;21.30;91.20;;;;;;4962970;28;20188;-69
2022/06/19 03:01:58;;;;;;;9.23;4.53;;;21.30;91.30;;;;;;4971290;28;20177;-72
2022/06/19 03:04:26;;;;;;;8.10;4.70;;;21.30;91.30;;;;;;4967775;28;20508;-70
2022/06/19 03:06:54;;;;;;;8.50;4.55;;;21.20;91.40;;;;;;4971295;28;20620;-70
2022/06/19 03:09:20;;;;;;;9.55;5.00;;;21.20;91.50;;;;;;4971782;28;20188;-69
2022/06/19 03:11:46;;;;;;;11.13;4.80;;;21.20;91.70;;;;;;4973905;28;20190;-70
2022/06/19 03:14:12;;;;;;;8.50;4.33;;;21.20;91.70;;;;;;4969611;28;20196;-71
2022/06/19 03:16:38;;;;;;;5.93;4.40;;;21.30;91.60;;;;;;4971247;28;20460;-70
2022/06/19 03:19:03;;;;;;;7.80;4.30;;;21.30;91.60;;;;;;4971897;28;20196;-71
2022/06/19 03:21:29;;;;;;;8.40;4.90;;;21.30;91.60;;;;;;4972646;28;20196;-70
2022/06/19 03:23:55;;;;;;;7.37;5.57;;;21.20;91.60;;;;;;4958560;28;20291;-70
2022/06/19 03:26:21;;;;;;;8.97;4.63;;;21.10;92.00;;;;;;4967743;28;20677;-70
2022/06/19 03:28:47;;;;;;;6.55;3.95;;;21.10;92.20;;;;;;4971452;28;20646;-70
2022/06/19 03:31:17;;;;;;;7.10;4.47;;;21.00;92.40;;;;;;4977327;28;20262;-70
2022/06/19 03:33:42;;;;;;;8.63;4.43;;;21.00;92.40;;;;;;4975305;28;20200;-69
2022/06/19 03:36:08;;;;;;;5.77;4.90;;;21.10;92.50;;;;;;4973179;28;20219;-69
2022/06/19 03:38:33;;;;;;;5.27;4.20;;;21.10;92.60;;;;;;4971561;28;20246;-70
2022/06/19 03:40:59;;;;;;;7.00;4.50;;;21.10;92.80;;;;;;4970135;28;20204;-69
2022/06/19 03:43:25;;;;;;;11.77;3.90;;;21.00;92.50;;;;;;4971268;28;20187;-70
2022/06/19 03:45:50;;;;;;;7.93;4.40;;;21.00;92.50;;;;;;4972843;28;20652;-69
2022/06/19 03:48:16;;;;;;;7.73;4.40;;;21.10;92.40;;;;;;4969498;28;20184;-69
2022/06/19 03:50:41;;;;;;;7.87;4.13;;;21.10;92.50;;;;;;4971560;28;20204;-69
2022/06/19 03:53:08;;;;;;;5.53;4.13;;;21.00;92.50;;;;;;4973242;28;20255;-70
2022/06/19 03:55:34;;;;;;;11.85;4.93;;;21.10;92.20;;;;;;4971041;28;20176;-69
2022/06/19 03:58:00;;;;;;;4.70;4.03;;;21.10;92.20;;;;;;4974525;28;20216;-69
2022/06/19 04:00:26;;;;;;;13.90;4.40;;;21.10;92.40;;;;;;4975744;28;20574;-70
2022/06/19 04:02:52;;;;;;;10.48;4.70;;;21.10;92.10;;;;;;4971992;28;20506;-70
2022/06/19 04:05:18;;;;;;;6.37;4.27;;;21.10;92.10;;;;;;4972229;28;20216;-70
2022/06/19 04:07:49;;;;;;;9.95;4.40;;;21.00;92.20;;;;;;4968940;28;20187;-70
2022/06/19 04:10:16;;;;;;;7.28;4.30;;;21.10;92.30;;;;;;4971426;28;20235;-70
2022/06/19 04:12:42;;;;;;;7.13;4.22;;;21.20;92.20;;;;;;4972274;28;20251;-70
2022/06/19 04:15:10;;;;;;;8.70;4.27;;;21.30;92.10;;;;;;4966822;28;20592;-70
2022/06/19 04:17:36;;;;;;;8.27;3.90;;;21.30;92.00;;;;;;4968469;28;20244;-72
2022/06/19 04:20:03;;;;;;;5.70;4.15;;;21.40;92.00;;;;;;4975929;28;20619;-72
2022/06/19 04:22:29;;;;;;;11.70;3.90;;;21.50;91.80;;;;;;4968302;28;20646;-74
2022/06/19 04:24:55;;;;;;;7.63;4.10;;;21.50;91.90;;;;;;4972712;28;20184;-73
2022/06/19 04:27:20;;;;;;;8.30;4.20;;;21.60;91.70;;;;;;4970352;28;20219;-73
2022/06/19 04:29:46;;;;;;;6.67;4.57;;;21.70;91.60;;;;;;4964755;28;20214;-73
2022/06/19 04:32:13;;;;;;;6.93;4.57;;;21.80;91.50;;;;;;4968908;28;20678;-74
2022/06/19 04:34:38;;;;;;;6.53;4.50;;;21.90;91.40;;;;;;4968430;28;20196;-73
2022/06/19 04:37:04;;;;;;;10.47;3.80;;;21.90;91.20;;;;;;4971072;28;20928;-74
2022/06/19 04:39:30;;;;;;;5.10;3.23;;;21.90;91.10;;;;;;4977105;28;20287;-73
2022/06/19 04:41:55;;;;;;;10.00;4.20;;;22.10;91.30;;;;;;4964876;28;20235;-73
2022/06/19 04:44:21;;;;;;;6.50;3.73;;;22.20;91.10;;;;;;4969577;28;20239;-73
2022/06/19 04:46:47;;;;;;;7.97;4.60;;;22.30;90.90;;;;;;4969050;28;20198;-72
2022/06/19 04:49:15;;;;;;;7.70;4.03;;;22.40;90.50;;;;;;4964696;28;20188;-73
2022/06/19 04:51:41;;;;;;;5.70;4.70;;;22.60;90.40;;;;;;4971563;28;20443;-77
2022/06/19 04:54:07;;;;;;;8.10;4.10;;;22.80;90.10;;;;;;4963399;28;20440;-72
2022/06/19 04:56:33;;;;;;;6.37;4.47;;;22.90;89.60;;;;;;4970435;28;20558;-72
2022/06/19 04:58:59;;;;;;;5.60;4.50;;;23.00;88.70;;;;;;4964223;28;20475;-72
2022/06/19 05:01:42;;;;;;;6.10;4.60;;;23.10;89.00;;;;;;4966645;28;20467;-72
2022/06/19 05:04:11;;;;;;;5.13;3.53;;;23.20;88.40;;;;;;4964023;28;20229;-72
2022/06/19 05:06:37;;;;;;;7.70;4.33;;;23.30;87.30;;;;;;4969222;28;20439;-72
2022/06/19 05:09:03;;;;;;;12.93;5.40;;;23.40;87.50;;;;;;4964185;28;20436;-72
2022/06/19 05:11:32;;;;;;;8.83;4.23;;;23.50;88.30;;;;;;4964806;28;20474;-73
2022/06/19 05:13:59;;;;;;;4.50;3.80;;;23.60;88.10;;;;;;4961575;28;20444;-74
2022/06/19 05:16:24;;;;;;;11.37;4.60;;;23.60;86.20;;;;;;4966199;28;20542;-73
2022/06/19 05:18:53;;;;;;;8.93;5.17;;;23.70;86.40;;;;;;4963204;28;20569;-73
2022/06/19 05:21:19;;;;;;;7.73;4.10;;;23.80;85.90;;;;;;4968432;28;20557;-73
2022/06/19 05:23:47;;;;;;;8.60;4.63;;;24.00;85.70;;;;;;4962157;28;20801;-73
2022/06/19 05:26:33;;;;;;;9.43;5.30;;;24.00;85.20;;;;;;4965618;28;20442;-73
2022/06/19 05:28:59;;;;;;;8.90;4.53;;;24.20;85.70;;;;;;4969250;28;20435;-73
2022/06/19 05:31:26;;;;;;;8.83;4.40;;;24.20;84.40;;;;;;4969027;28;20541;-73
2022/06/19 05:33:52;;;;;;;6.20;4.10;;;24.30;83.70;;;;;;4969369;28;20971;-74
2022/06/19 05:36:19;;;;;;;11.00;5.37;;;24.40;83.30;;;;;;4969572;28;20468;-72
2022/06/19 05:38:44;;;;;;;9.03;4.23;;;24.50;82.50;;;;;;4970533;28;20953;-73
2022/06/19 05:41:10;;;;;;;9.47;4.60;;;24.60;82.80;;;;;;4962506;28;20463;-74
2022/06/19 05:43:36;;;;;;;7.10;4.83;;;24.80;82.40;;;;;;4966651;28;20199;-76
2022/06/19 05:46:06;;;;;;;10.07;4.40;;;25.00;82.50;;;;;;4968008;28;20195;-73
2022/06/19 05:48:32;;;;;;;10.60;4.50;;;25.20;81.80;;;;;;4968130;28;20438;-72
2022/06/19 05:50:57;;;;;;;10.30;4.60;;;25.40;81.30;;;;;;4966914;28;20462;-73
2022/06/19 05:53:23;;;;;;;9.80;4.23;;;25.50;80.50;;;;;;4966994;28;20432;-72
2022/06/19 05:55:49;;;;;;;11.93;4.70;;;25.70;79.10;;;;;;4970011;28;20651;-73
2022/06/19 05:58:15;;;;;;;9.97;5.13;;;25.80;78.60;;;;;;4969573;28;20540;-74
2022/06/19 06:00:40;;;;;;;10.80;4.20;;;26.00;78.40;;;;;;4966303;28;20236;-73
2022/06/19 06:03:06;;;;;;;8.80;4.80;;;26.20;76.70;;;;;;4969803;28;20673;-73
2022/06/19 06:05:31;;;;;;;10.10;4.70;;;26.40;76.30;;;;;;4974159;28;20354;-72
2022/06/19 06:07:57;;;;;;;7.27;4.97;;;26.60;74.50;;;;;;4971710;28;20199;-72
2022/06/19 06:10:23;;;;;;;9.57;5.03;;;26.70;74.60;;;;;;4972314;28;20203;-72
2022/06/19 06:12:48;;;;;;;13.43;5.20;;;26.80;74.00;;;;;;4974898;28;20183;-73
2022/06/19 06:15:14;;;;;;;9.43;4.30;;;26.90;72.90;;;;;;4962879;28;20259;-72
2022/06/19 06:17:39;;;;;;;7.97;4.97;;;27.00;72.50;;;;;;4971945;28;20577;-72
2022/06/19 06:20:05;;;;;;;9.60;4.97;;;27.20;72.20;;;;;;4974670;28;20276;-72
2022/06/19 06:22:31;;;;;;;10.70;4.90;;;27.30;71.80;;;;;;4974379;28;20596;-72
2022/06/19 06:24:58;;;;;;;10.10;4.73;;;27.40;70.90;;;;;;4973224;28;20427;-73
2022/06/19 06:27:23;;;;;;;12.23;4.50;;;27.60;70.40;;;;;;4970564;28;20238;-72
2022/06/19 06:29:49;;;;;;;10.87;4.60;;;27.60;69.10;;;;;;4973387;28;21286;-73
2022/06/19 06:32:15;;;;;;;15.10;5.30;;;27.80;68.80;;;;;;4972335;28;20195;-73
2022/06/19 06:34:41;;;;;;;8.17;4.80;;;28.00;68.10;;;;;;4970212;28;20587;-74
2022/06/19 06:37:06;;;;;;;12.53;4.60;;;28.20;67.70;;;;;;4973737;28;20270;-73
2022/06/19 06:39:32;;;;;;;11.30;4.93;;;28.30;67.10;;;;;;4969225;28;20196;-72
2022/06/19 06:41:57;;;;;;;12.67;4.57;;;28.60;66.90;;;;;;4972868;28;20182;-73
2022/06/19 06:44:23;;;;;;;10.33;5.40;;;28.70;67.20;;;;;;4972868;28;21062;-74
2022/06/19 06:46:49;;;;;;;12.43;4.80;;;28.90;66.00;;;;;;4968937;28;20407;-75
2022/06/19 06:49:15;;;;;;;9.10;4.40;;;29.00;65.10;;;;;;4971165;28;20177;-73
2022/06/19 06:51:41;;;;;;;6.53;4.83;;;29.30;64.70;;;;;;4972907;28;20435;-73
2022/06/19 06:54:06;;;;;;;8.50;4.47;;;29.60;64.00;;;;;;4969879;28;20180;-74
2022/06/19 06:56:34;;;;;;;8.30;5.37;;;30.10;62.90;;;;;;4971021;28;20227;-74
2022/06/19 06:59:00;;;;;;;8.70;5.00;;;30.30;61.70;;;;;;4974089;28;20180;-74
2022/06/19 07:01:26;;;;;;;12.43;5.90;;;30.40;60.60;;;;;;4971867;28;20542;-73
2022/06/19 07:03:56;;;;;;;8.97;4.87;;;30.50;60.40;;;;;;4957338;28;21066;-73
2022/06/19 07:06:28;;;;;;;8.00;5.27;;;30.60;60.40;;;;;;4972593;28;20200;-74
2022/06/19 07:08:55;;;;;;;11.00;5.30;;;31.00;60.00;;;;;;4971232;28;20494;-74
2022/06/19 07:11:24;;;;;;;8.53;4.53;;;31.20;59.30;;;;;;4963406;28;20877;-75
2022/06/19 07:13:50;;;;;;;8.17;5.17;;;31.00;59.40;;;;;;4970444;28;20189;-74
2022/06/19 07:16:16;;;;;;;13.97;6.13;;;31.00;59.70;;;;;;4962500;28;20481;-72
2022/06/19 07:18:42;;;;;;;11.60;5.50;;;31.50;58.80;;;;;;4972243;28;20524;-72
2022/06/19 07:21:10;;;;;;;10.10;5.03;;;32.10;57.30;;;;;;4977053;28;20669;-72
2022/06/19 07:23:36;;;;;;;11.50;4.93;;;33.50;55.00;;;;;;4972270;28;20217;-73
2022/06/19 07:26:02;;;;;;;12.20;5.63;;;35.30;52.40;;;;;;4968817;28;20479;-73
2022/06/19 07:28:28;;;;;;;8.50;5.17;;;36.20;49.60;;;;;;4962303;28;20530;-73
2022/06/19 07:30:54;;;;;;;8.27;6.40;;;37.50;47.40;;;;;;4968197;28;20294;-73
2022/06/19 07:33:20;;;;;;;10.53;4.97;;;38.10;45.40;;;;;;4970510;28;20196;-74
2022/06/19 07:35:46;;;;;;;9.47;5.60;;;38.80;44.10;;;;;;4969322;28;20263;-73
2022/06/19 07:38:11;;;;;;;10.50;5.40;;;39.00;42.80;;;;;;4969254;28;20459;-73
2022/06/19 07:40:37;;;;;;;11.40;5.97;;;39.00;42.00;;;;;;4972843;28;20468;-73
2022/06/19 07:43:06;;;;;;;10.47;6.03;;;39.30;42.00;;;;;;4968841;28;20184;-73
2022/06/19 07:45:32;;;;;;;13.80;6.10;;;40.70;40.40;;;;;;4971543;28;20753;-74
2022/06/19 07:50:43;;;;;;;8.13;6.07;;;41.40;39.40;;;;;;4978309;28;20269;-73
2022/06/19 07:53:09;;;;;;;12.90;5.67;;;41.70;38.60;;;;;;4966998;28;20440;-74
2022/06/19 07:55:35;;;;;;;12.60;6.40;;;42.50;37.80;;;;;;4964521;28;20191;-74
2022/06/19 07:58:01;;;;;;;13.60;6.53;;;42.70;37.30;;;;;;4972165;28;20463;-74
2022/06/19 08:00:32;;;;;;;13.03;6.10;;;43.10;37.00;;;;;;4973584;28;20213;-74
2022/06/19 08:02:58;;;;;;;11.60;5.90;;;44.00;36.30;;;;;;4975054;28;20439;-74
2022/06/19 08:05:30;;;;;;;9.30;5.17;;;44.20;35.10;;;;;;4970053;28;21045;-74
2022/06/19 08:07:58;;;;;;;9.23;6.30;;;44.60;35.00;;;;;;4969549;28;20447;-74
2022/06/19 08:10:46;;;;;;;10.50;6.40;;;44.90;34.10;;;;;;4972680;28;20467;-74
2022/06/19 08:13:12;;;;;;;7.33;5.80;;;44.30;34.50;;;;;;4970304;28;20435;-74
2022/06/19 08:15:37;;;;;;;8.90;6.70;;;45.20;34.00;;;;;;4964738;28;20444;-73
2022/06/19 08:18:03;;;;;;;10.23;8.03;;;45.20;33.30;;;;;;4968872;28;20514;-75
2022/06/19 08:20:30;;;;;;;10.43;7.23;;;45.10;32.60;;;;;;4974819;28;20196;-75
2022/06/19 08:22:56;;;;;;;10.27;9.27;;;44.80;32.20;;;;;;4975666;28;20311;-75
2022/06/19 08:25:23;;;;;;;11.33;8.60;;;45.30;31.30;;;;;;4972019;28;20522;-75
2022/06/19 08:27:50;;;;;;;13.30;8.97;;;45.30;31.30;;;;;;4969491;28;20238;-75
2022/06/19 08:30:23;;;;;;;13.50;10.33;;;45.60;30.60;;;;;;4970385;28;20992;-75
2022/06/19 08:32:49;;;;;;;11.23;9.57;;;45.60;29.80;;;;;;4964121;28;20532;-75
2022/06/19 08:35:15;;;;;;;10.70;8.53;;;45.10;29.60;;;;;;4969664;28;20534;-75
2022/06/19 08:37:43;;;;;;;10.67;9.57;;;45.00;30.00;;;;;;4969515;28;20243;-75
2022/06/19 08:40:34;;;;;;;11.40;10.20;;;45.20;29.70;;;;;;4971372;28;20228;-75
2022/06/19 08:43:18;;;;;;;12.23;9.97;;;45.40;29.50;;;;;;4971701;28;20981;-75
2022/06/19 08:45:53;;;;;;;11.37;10.00;;;45.50;29.30;;;;;;4969966;28;20423;-74
2022/06/19 08:48:31;;;;;;;11.17;10.20;;;45.40;29.10;;;;;;4969897;28;20439;-73
2022/06/19 08:51:15;;;;;;;10.90;9.93;;;45.60;28.30;;;;;;4972397;28;20489;-72
2022/06/19 08:53:50;;;;;;;12.50;10.20;;;45.90;27.80;;;;;;4972785;28;20474;-73
2022/06/19 08:56:26;;;;;;;10.73;9.73;;;47.10;27.20;;;;;;4961959;28;20985;-71
2022/06/19 08:59:12;;;;;;;13.80;10.10;;;46.60;26.80;;;;;;4971950;28;20435;-71
2022/06/19 09:01:46;;;;;;;11.70;10.50;;;45.90;25.90;;;;;;4962264;28;20826;-72
2022/06/19 09:07:53;;;;;;;10.00;9.10;;;45.80;25.70;;;;;;4964011;28;20462;-70
2022/06/19 09:10:40;;;;;;;11.70;10.10;;;46.80;25.20;;;;;;4958561;28;20495;-72
2022/06/19 09:13:23;;;;;;;10.80;9.70;;;46.60;25.10;;;;;;4967501;28;20779;-71
2022/06/19 09:16:24;;;;;;;10.57;9.20;;;46.10;24.80;;;;;;4967384;28;20525;-74
2022/06/19 09:19:05;;;;;;;12.10;9.23;;;46.50;24.20;;;;;;4967904;28;20450;-73
2022/06/19 09:22:02;;;;;;;13.60;8.27;;;46.70;23.90;;;;;;4965284;28;20455;-69
2022/06/19 09:25:02;;;;;;;11.07;8.70;;;46.80;23.30;;;;;;4965258;28;20875;-70
2022/06/19 09:27:32;;;;;;;9.43;8.57;;;46.40;23.90;;;;;;4963650;28;20478;-75
2022/06/19 09:30:14;;;;;;;10.17;8.70;;;46.00;23.90;;;;;;4964270;28;20460;-75
2022/06/19 09:32:52;;;;;;;11.73;8.57;;;46.20;23.80;;;;;;4961127;28;21082;-74
2022/06/19 09:35:44;;;;;;;10.03;8.73;;;45.70;24.00;;;;;;4967448;28;20458;-74
2022/06/19 09:38:32;;;;;;;11.17;8.07;;;46.20;23.50;;;;;;4961743;28;20553;-73
2022/06/19 09:41:02;;;;;;;11.30;8.50;;;45.30;23.30;;;;;;4969509;28;20455;-74
2022/06/19 09:43:28;;;;;;;9.23;8.27;;;45.30;23.70;;;;;;4963855;28;20442;-76
2022/06/19 09:46:06;;;;;;;11.30;7.67;;;46.10;23.60;;;;;;4965850;28;20828;-76
2022/06/19 09:48:59;;;;;;;11.47;10.10;;;46.30;23.10;;;;;;4981253;28;20222;-74
2022/06/19 09:51:40;;;;;;;9.80;7.70;;;47.30;22.50;;;;;;4963501;28;20818;-73
2022/06/19 09:54:32;;;;;;;10.83;7.80;;;47.50;22.00;;;;;;4963639;28;21025;-75
2022/06/19 09:57:17;;;;;;;9.77;7.17;;;47.50;21.50;;;;;;4960217;28;21061;-75
2022/06/19 09:59:51;;;;;;;8.70;7.90;;;46.90;21.70;;;;;;4966573;28;20459;-74
2022/06/19 10:02:30;;;;;;;8.17;7.33;;;46.90;21.90;;;;;;4967141;28;20540;-76
2022/06/19 10:05:18;;;;;;;10.13;8.10;;;46.20;22.20;;;;;;4966556;28;20462;-76
2022/06/19 10:08:20;;;;;;;9.33;8.40;;;46.20;22.50;;;;;;4965055;28;20436;-75
2022/06/19 10:10:53;;;;;;;8.97;7.63;;;45.70;22.90;;;;;;4962949;28;20543;-74
2022/06/19 10:13:52;;;;;;;9.73;8.13;;;45.80;22.90;;;;;;4964258;28;21128;-74
2022/06/19 10:16:44;;;;;;;11.53;8.57;;;45.70;22.50;;;;;;4987813;28;20466;-73
2022/06/19 10:19:14;;;;;;;9.50;8.70;;;45.90;23.10;;;;;;4970991;28;20478;-72
2022/06/19 10:22:15;;;;;;;10.00;8.10;;;46.40;22.80;;;;;;4967906;28;20466;-72
2022/06/19 10:24:44;;;;;;;13.53;8.80;;;46.00;22.70;;;;;;4964689;28;20444;-71
2022/06/19 10:27:41;;;;;;;9.07;8.10;;;47.00;22.60;;;;;;4966797;28;20447;-71
2022/06/19 10:30:22;;;;;;;15.43;7.90;;;47.00;22.30;;;;;;4961047;28;20531;-70
2022/06/19 10:33:25;;;;;;;8.93;7.93;;;46.50;22.40;;;;;;4966421;28;20447;-76
2022/06/19 10:36:14;;;;;;;11.73;7.67;;;46.30;22.30;;;;;;4968895;28;20466;-77
2022/06/19 10:39:10;;;;;;;9.60;7.33;;;45.00;22.60;;;;;;4966960;28;20509;-75
2022/06/19 10:42:18;;;;;;;8.70;8.00;;;45.00;22.80;;;;;;4971319;28;20444;-75
2022/06/19 10:44:44;;;;;;;11.20;8.10;;;44.70;23.00;;;;;;4953719;28;20477;-73
2022/06/19 10:47:14;;;;;;;12.90;7.90;;;44.40;23.60;;;;;;4965692;28;20436;-71
2022/06/19 10:50:04;;;;;;;10.23;8.47;;;45.20;23.00;;;;;;4969477;28;20211;-72
2022/06/19 10:52:38;;;;;;;8.87;7.97;;;45.30;22.90;;;;;;4973227;28;20440;-71
2022/06/19 10:55:34;;;;;;;14.03;8.33;;;45.10;23.30;;;;;;4972626;28;20474;-74
2022/06/19 10:58:05;;;;;;;11.27;8.40;;;45.20;23.10;;;;;;4972051;28;20468;-73
2022/06/19 11:00:31;;;;;;;10.47;7.23;;;45.20;22.80;;;;;;4973470;28;20494;-74
2022/06/19 11:06:33;;;;;;;10.73;7.27;;;44.40;23.10;;;;;;4971002;28;20190;-67
2022/06/19 11:09:22;;;;;;;7.77;6.80;;;43.80;23.40;;;;;;4970175;28;20581;-72
2022/06/19 11:11:50;;;;;;;12.13;8.40;;;44.10;23.50;;;;;;4970661;28;20807;-71
2022/06/19 11:14:38;;;;;;;11.67;7.27;;;44.60;23.20;;;;;;4972147;28;20865;-74
2022/06/19 11:17:07;;;;;;;13.43;7.90;;;44.70;23.20;;;;;;4970654;28;20570;-72
2022/06/19 11:19:38;;;;;;;12.40;7.80;;;44.90;23.10;;;;;;4973596;28;20538;-70
2022/06/19 11:22:22;;;;;;;9.50;7.50;;;45.20;22.90;;;;;;4965082;28;20516;-71
2022/06/19 11:24:48;;;;;;;10.23;6.97;;;45.30;22.40;;;;;;4973609;28;20439;-73
2022/06/19 11:27:23;;;;;;;12.47;6.80;;;45.30;22.50;;;;;;4964212;28;20809;-75
2022/06/19 11:29:51;;;;;;;10.27;7.60;;;44.90;22.80;;;;;;4967632;28;20351;-74
2022/06/19 11:32:26;;;;;;;13.27;7.20;;;44.70;22.70;;;;;;4970206;28;20436;-73
2022/06/19 11:35:03;;;;;;;14.53;7.43;;;44.30;23.00;;;;;;4971753;28;20431;-73
2022/06/19 11:37:52;;;;;;;9.23;7.77;;;43.70;23.50;;;;;;4970885;28;20474;-73
2022/06/19 11:40:28;;;;;;;10.77;7.90;;;43.70;23.80;;;;;;4965243;28;20459;-71
2022/06/19 11:42:59;;;;;;;8.20;7.10;;;43.80;23.50;;;;;;4967499;28;20447;-71
2022/06/19 11:45:29;;;;;;;9.83;7.23;;;43.60;23.70;;;;;;4972591;28;21028;-73
2022/06/19 11:47:55;;;;;;;11.43;7.37;;;43.10;24.30;;;;;;4971808;28;20443;-71
2022/06/19 11:50:31;;;;;;;10.97;8.77;;;42.70;24.30;;;;;;4971103;28;20493;-71
2022/06/19 11:53:10;;;;;;;8.83;7.90;;;42.10;24.60;;;;;;4969490;28;20960;-70
2022/06/19 11:55:48;;;;;;;11.77;7.30;;;41.40;25.10;;;;;;4963487;28;20463;-70
2022/06/19 11:58:16;;;;;;;9.03;6.80;;;41.10;25.50;;;;;;4965619;28;20473;-71
2022/06/19 12:00:44;;;;;;;10.57;6.70;;;40.50;26.10;;;;;;4969869;28;20467;-67
2022/06/19 12:03:31;;;;;;;10.20;7.50;;;40.00;26.50;;;;;;4967912;28;20539;-73
2022/06/19 12:06:04;;;;;;;9.77;7.27;;;39.50;27.20;;;;;;4970503;28;20428;-68
2022/06/19 12:08:34;;;;;;;8.80;7.10;;;39.20;27.30;;;;;;4961319;28;20610;-71
2022/06/19 12:11:02;;;;;;;12.33;7.47;;;38.90;27.70;;;;;;4965449;28;20452;-68
2022/06/19 12:13:30;;;;;;;11.43;7.87;;;38.90;28.00;;;;;;4971447;28;20471;-68
2022/06/19 12:16:03;;;;;;;8.50;7.47;;;38.70;28.10;;;;;;4956623;28;20455;-70
2022/06/19 12:18:32;;;;;;;10.10;7.27;;;38.40;28.10;;;;;;4965692;28;20475;-68
2022/06/19 12:21:20;;;;;;;14.97;7.87;;;38.20;28.60;;;;;;4971505;28;20463;-69
2022/06/19 12:24:14;;;;;;;11.83;7.50;;;37.80;28.50;;;;;;4971691;28;20444;-70
2022/06/19 12:26:48;;;;;;;9.73;7.37;;;37.80;29.00;;;;;;4967357;28;20561;-68
2022/06/19 12:29:24;;;;;;;9.53;7.60;;;37.70;28.80;;;;;;4972163;28;20478;-68
2022/06/19 12:31:51;;;;;;;9.93;8.00;;;37.70;29.10;;;;;;4967927;28;20451;-68
2022/06/19 12:34:32;;;;;;;10.77;7.77;;;37.80;29.10;;;;;;4968684;28;20506;-67
2022/06/19 12:36:59;;;;;;;13.23;7.53;;;37.70;28.90;;;;;;4971021;28;20957;-67
2022/06/19 12:39:29;;;;;;;12.87;8.60;;;37.70;29.20;;;;;;4968198;28;20439;-68
2022/06/19 12:42:48;;;;;;;14.20;8.50;;;37.60;28.90;;;;;;4965640;28;20785;-68
2022/06/19 12:45:37;;;;;;;11.70;6.63;;;37.60;29.20;;;;;;4972270;28;20542;-68
2022/06/19 12:48:21;;;;;;;7.90;7.10;;;37.60;28.80;;;;;;4969996;28;20436;-68
2022/06/19 12:50:59;;;;;;;9.73;7.20;;;37.50;28.80;;;;;;4969564;28;20451;-68
2022/06/19 12:53:45;;;;;;;8.93;7.10;;;37.50;28.90;;;;;;4971152;28;21051;-70
2022/06/19 12:56:20;;;;;;;11.97;7.57;;;37.50;29.10;;;;;;4960701;28;20435;-69
2022/06/19 12:59:12;;;;;;;11.80;6.90;;;37.40;28.90;;;;;;4970833;28;20506;-67
2022/06/19 13:02:10;;;;;;;8.60;6.63;;;37.30;28.60;;;;;;4969218;28;20451;-68
2022/06/19 13:05:03;;;;;;;10.43;7.10;;;37.20;28.90;;;;;;4959959;28;20818;-70
2022/06/19 13:07:39;;;;;;;9.40;7.10;;;37.20;29.10;;;;;;4964342;28;20777;-73
2022/06/19 13:10:29;;;;;;;10.57;6.97;;;37.10;29.40;;;;;;4968808;28;20688;-73
2022/06/19 13:13:29;;;;;;;9.40;7.70;;;37.00;29.40;;;;;;4969889;28;20526;-72
2022/06/19 13:15:58;;;;;;;10.00;6.73;;;37.00;29.50;;;;;;4971867;28;20807;-73